Jamaica, NY

3:36 PM EDT on May 27, 2015 (GMT -0400)
Kennedy International | | Change Station
CLOSE
Current Station
Airport
Location: New York JFK,
Elevation: 23 ft
Nearby Weather Stations

Elev 23 ft 40.64 °N, 73.76 °W | Updated 45 minutes ago

Partly Cloudy
Partly Cloudy
73 °F
Feels Like 73 °F
N
21
Wind Variable Wind from South

Today
High -- | Low -- °F
--% Chance of Precip.
Yesterday
High -- | Low -- °F
Precip. -- in
5:28 AM 8:16 PM
Waxing Gibbous, 69% visible
Pressure 30.16 in
Visibility 10.0 miles
Clouds Few 3500 ft
Scattered Clouds 25000 ft
Dew Point 61 °F
Humidity 66%
Rainfall 0.00 in
Snow Depth Not available.
UV 7 out of 12
Pollen 4.90 out of 12
Air Quality Not available.
Flu Activity Widespread
METAR KJFK 271851Z 18018KT 10SM R04R/4500VP6000FT FEW035 SCT250 23/16 A3015 RMK AO2 SLP211 TCU DSNT W T02280161

More Conditions Fewer Conditions

Pressure 30.16 in
Visibility 10.0 miles
Clouds Few 3500 ft
Scattered Clouds 25000 ft
Dew Point 61 °F
Humidity 66%
Rainfall 0.00 in
Snow Depth Not available.
UV 7 out of 12
Pollen 4.90 out of 12
Air Quality Not available.
Flu Activity Widespread
METAR KJFK 271851Z 18018KT 10SM R04R/4500VP6000FT FEW035 SCT250 23/16 A3015 RMK AO2 SLP211 TCU DSNT W T02280161

More Conditions Fewer Conditions

10-Day Weather Forecast

Almanac

Astronomy

May. 27, 2015 Rise Set
Actual Time
Civil Twilight
Nautical Twilight
Astronomical Twilight
Moon
Length Of Visible Light
Length of Day
Tomorrow will be .
, % of the Moon is Illuminated

Today's Extremes

State Highs State Lows

Community

WunderPhotos

Upload Photos

1,824,773 photos uploaded!

WunderBlogs® & News

Nearby

Air Quality

  Air Quality AQ Index Pollutant
Not available.

Snow Depth

Station Depth Elevation

Earthquake Activity

City Distance Mag. Time & Date
Minimum magnitude displayed is 2.5.

Coastal Water Temperatures

Place Temperature

Stations

Nearby Weather Stations

Station Location Temp. Windchill Dew Point Humidity Wind Precip. Elev Updated Type